Wingdale, New York
Current Conditions -  °F | °C
As of 10:53 AM on Thursday 23 Oct 2014 (Local Time) from KPOU Reporting Station
Moderate Rain Moderate Rain  
Wind Chill: 43°   Ceiling: 1300
Heat Index: 48°   Visibility: 4mi
Dew Point: 45°   Wind: 13mph
Humidity: 89%   Direction: 360°N
Pressure: 29.76"   Gusts: 29mph
Location:  41.65°N, 73.57°W
Report Text: KPOU 231453Z 36011G25KT 4SM RA BR OVC013 09/07 A2976 RMK AO2 PK WND 02026/1440 SLP076 P0009 60011 T00890072 53004
Loading
Personal Weather Stations






























Interactive Weather Map
Tropical Storm Tracking
New forecast layout! Learn more

10-Day Weather Forecast

Advertisements
Track Severe Weather on mobile